Airport ID:KS21
Update Time (UTC):24/09/2020 05:34
Wind Speed (Knots):9
Wind Direction (Magnetic):210
Temperature (°C):13
Dew Point (°C):11
Humidity (%):88
Altimeter (inHg):30.02
Density Altitude (Feet):
Visibility (Miles):7
Clouds (Hundreds of feet):FEW027 BKN032 OVC040
Present Weather:
METAR:METAR KS21 240530Z AUTO 23008G15KT 6SM BR FEW027 BKN032 OVC042 13/12 A3002 RMK AO2

The data displayed is for advisory purposes only and is not to be used for flight planning or operations.